sensor_id;sensor_type;location;lat;lon;timestamp;P1;durP1;ratioP1;P2;durP2;ratioP2
21354;SDS011;10835;50.148;19.760;2022-11-23T00:01:16;17.20;;;7.55;;
21354;SDS011;10835;50.148;19.760;2022-11-23T00:03:47;14.95;;;7.47;;
21354;SDS011;10835;50.148;19.760;2022-11-23T00:06:17;18.27;;;7.32;;
21354;SDS011;10835;50.148;19.760;2022-11-23T00:08:48;17.15;;;8.23;;
21354;SDS011;10835;50.148;19.760;2022-11-23T00:11:17;17.05;;;7.32;;
21354;SDS011;10835;50.148;19.760;2022-11-23T00:13:46;13.55;;;6.95;;
21354;SDS011;10835;50.148;19.760;2022-11-23T00:16:15;21.10;;;7.85;;
21354;SDS011;10835;50.148;19.760;2022-11-23T00:18:46;13.02;;;6.82;;
21354;SDS011;10835;50.148;19.760;2022-11-23T00:21:16;16.35;;;7.63;;
21354;SDS011;10835;50.148;19.760;2022-11-23T00:23:45;18.75;;;8.20;;
21354;SDS011;10835;50.148;19.760;2022-11-23T00:26:13;18.15;;;7.88;;
21354;SDS011;10835;50.148;19.760;2022-11-23T00:28:42;17.73;;;7.15;;
21354;SDS011;10835;50.148;19.760;2022-11-23T00:31:12;16.48;;;7.10;;
21354;SDS011;10835;50.148;19.760;2022-11-23T00:33:42;13.75;;;6.55;;
21354;SDS011;10835;50.148;19.760;2022-11-23T00:36:15;17.92;;;7.10;;
21354;SDS011;10835;50.148;19.760;2022-11-23T00:38:44;16.02;;;7.03;;
21354;SDS011;10835;50.148;19.760;2022-11-23T00:41:12;20.00;;;8.05;;
21354;SDS011;10835;50.148;19.760;2022-11-23T00:43:41;15.52;;;6.57;;
21354;SDS011;10835;50.148;19.760;2022-11-23T00:46:11;16.08;;;7.53;;
21354;SDS011;10835;50.148;19.760;2022-11-23T00:48:40;16.77;;;6.90;;
21354;SDS011;10835;50.148;19.760;2022-11-23T00:51:10;18.80;;;8.93;;
21354;SDS011;10835;50.148;19.760;2022-11-23T00:53:40;16.17;;;7.07;;
21354;SDS011;10835;50.148;19.760;2022-11-23T00:56:09;14.88;;;6.38;;
21354;SDS011;10835;50.148;19.760;2022-11-23T00:58:38;15.13;;;6.82;;
21354;SDS011;10835;50.148;19.760;2022-11-23T01:01:07;17.23;;;7.53;;
21354;SDS011;10835;50.148;19.760;2022-11-23T01:03:37;14.75;;;6.47;;
21354;SDS011;10835;50.148;19.760;2022-11-23T01:06:07;17.05;;;7.40;;
21354;SDS011;10835;50.148;19.760;2022-11-23T01:08:36;18.55;;;7.20;;
21354;SDS011;10835;50.148;19.760;2022-11-23T01:11:07;18.02;;;7.47;;
21354;SDS011;10835;50.148;19.760;2022-11-23T01:13:37;14.43;;;7.20;;
21354;SDS011;10835;50.148;19.760;2022-11-23T01:16:06;18.13;;;7.22;;
21354;SDS011;10835;50.148;19.760;2022-11-23T01:18:36;12.90;;;6.50;;
21354;SDS011;10835;50.148;19.760;2022-11-23T01:21:04;17.58;;;7.45;;
21354;SDS011;10835;50.148;19.760;2022-11-23T01:23:32;18.98;;;7.43;;
21354;SDS011;10835;50.148;19.760;2022-11-23T01:26:05;19.90;;;8.30;;
21354;SDS011;10835;50.148;19.760;2022-11-23T01:28:36;17.23;;;7.13;;
21354;SDS011;10835;50.148;19.760;2022-11-23T01:31:06;23.23;;;8.38;;
21354;SDS011;10835;50.148;19.760;2022-11-23T01:33:36;20.75;;;7.85;;
21354;SDS011;10835;50.148;19.760;2022-11-23T01:36:08;17.50;;;7.43;;
21354;SDS011;10835;50.148;19.760;2022-11-23T01:38:37;17.58;;;7.53;;
21354;SDS011;10835;50.148;19.760;2022-11-23T01:41:10;19.23;;;8.10;;
21354;SDS011;10835;50.148;19.760;2022-11-23T01:43:40;15.70;;;6.82;;
21354;SDS011;10835;50.148;19.760;2022-11-23T01:46:08;18.27;;;8.43;;
21354;SDS011;10835;50.148;19.760;2022-11-23T01:48:38;19.00;;;8.20;;
21354;SDS011;10835;50.148;19.760;2022-11-23T01:51:10;19.02;;;8.32;;
21354;SDS011;10835;50.148;19.760;2022-11-23T01:53:41;20.20;;;8.25;;
21354;SDS011;10835;50.148;19.760;2022-11-23T01:56:12;18.88;;;8.77;;
21354;SDS011;10835;50.148;19.760;2022-11-23T01:58:44;19.25;;;7.50;;
21354;SDS011;10835;50.148;19.760;2022-11-23T02:01:16;17.08;;;8.40;;
21354;SDS011;10835;50.148;19.760;2022-11-23T02:03:45;15.15;;;7.93;;
21354;SDS011;10835;50.148;19.760;2022-11-23T02:06:15;18.77;;;8.00;;
21354;SDS011;10835;50.148;19.760;2022-11-23T02:08:44;18.67;;;7.80;;
21354;SDS011;10835;50.148;19.760;2022-11-23T02:11:15;18.50;;;7.72;;
21354;SDS011;10835;50.148;19.760;2022-11-23T02:13:44;20.02;;;7.63;;
21354;SDS011;10835;50.148;19.760;2022-11-23T02:16:14;18.73;;;7.97;;
21354;SDS011;10835;50.148;19.760;2022-11-23T02:18:44;17.98;;;7.40;;
21354;SDS011;10835;50.148;19.760;2022-11-23T02:21:18;19.75;;;7.13;;
21354;SDS011;10835;50.148;19.760;2022-11-23T02:23:47;15.40;;;6.47;;
21354;SDS011;10835;50.148;19.760;2022-11-23T02:26:22;20.90;;;7.70;;
21354;SDS011;10835;50.148;19.760;2022-11-23T02:28:53;20.20;;;8.10;;
21354;SDS011;10835;50.148;19.760;2022-11-23T02:31:27;19.33;;;7.35;;
21354;SDS011;10835;50.148;19.760;2022-11-23T02:33:56;22.05;;;8.32;;
21354;SDS011;10835;50.148;19.760;2022-11-23T02:36:36;19.48;;;7.80;;
21354;SDS011;10835;50.148;19.760;2022-11-23T02:39:08;20.73;;;8.73;;
21354;SDS011;10835;50.148;19.760;2022-11-23T02:41:40;15.88;;;6.95;;
21354;SDS011;10835;50.148;19.760;2022-11-23T02:44:13;19.00;;;7.68;;
21354;SDS011;10835;50.148;19.760;2022-11-23T02:46:49;20.17;;;7.63;;
21354;SDS011;10835;50.148;19.760;2022-11-23T02:49:17;19.77;;;8.43;;
21354;SDS011;10835;50.148;19.760;2022-11-23T02:51:45;20.60;;;8.45;;
21354;SDS011;10835;50.148;19.760;2022-11-23T02:54:13;21.65;;;7.57;;
21354;SDS011;10835;50.148;19.760;2022-11-23T02:56:43;19.65;;;7.53;;
21354;SDS011;10835;50.148;19.760;2022-11-23T02:59:11;16.05;;;7.40;;
21354;SDS011;10835;50.148;19.760;2022-11-23T03:01:41;20.40;;;8.00;;
21354;SDS011;10835;50.148;19.760;2022-11-23T03:04:11;19.73;;;7.55;;
21354;SDS011;10835;50.148;19.760;2022-11-23T03:06:40;21.40;;;8.02;;
21354;SDS011;10835;50.148;19.760;2022-11-23T03:09:08;18.52;;;8.30;;
21354;SDS011;10835;50.148;19.760;2022-11-23T03:11:36;17.38;;;8.18;;
21354;SDS011;10835;50.148;19.760;2022-11-23T03:14:06;19.83;;;8.00;;
21354;SDS011;10835;50.148;19.760;2022-11-23T03:16:42;18.10;;;7.70;;
21354;SDS011;10835;50.148;19.760;2022-11-23T03:19:15;20.88;;;8.13;;
21354;SDS011;10835;50.148;19.760;2022-11-23T03:21:43;22.13;;;8.70;;
21354;SDS011;10835;50.148;19.760;2022-11-23T03:24:11;18.58;;;7.85;;
21354;SDS011;10835;50.148;19.760;2022-11-23T03:26:39;15.55;;;7.13;;
21354;SDS011;10835;50.148;19.760;2022-11-23T03:29:17;16.88;;;7.45;;
21354;SDS011;10835;50.148;19.760;2022-11-23T03:31:46;17.88;;;7.82;;
21354;SDS011;10835;50.148;19.760;2022-11-23T03:34:18;16.05;;;7.65;;
21354;SDS011;10835;50.148;19.760;2022-11-23T03:36:46;19.65;;;8.10;;
21354;SDS011;10835;50.148;19.760;2022-11-23T03:39:14;17.98;;;7.78;;
21354;SDS011;10835;50.148;19.760;2022-11-23T03:41:49;14.27;;;6.88;;
21354;SDS011;10835;50.148;19.760;2022-11-23T03:44:21;21.73;;;8.45;;
21354;SDS011;10835;50.148;19.760;2022-11-23T03:46:53;18.58;;;7.90;;
21354;SDS011;10835;50.148;19.760;2022-11-23T03:49:21;20.48;;;8.07;;
21354;SDS011;10835;50.148;19.760;2022-11-23T03:51:51;21.48;;;8.55;;
21354;SDS011;10835;50.148;19.760;2022-11-23T03:54:19;17.17;;;7.72;;
21354;SDS011;10835;50.148;19.760;2022-11-23T03:56:47;12.88;;;5.97;;
21354;SDS011;10835;50.148;19.760;2022-11-23T03:59:16;33.20;;;11.68;;
21354;SDS011;10835;50.148;19.760;2022-11-23T04:01:46;18.23;;;7.28;;
21354;SDS011;10835;50.148;19.760;2022-11-23T04:04:20;17.33;;;7.93;;
21354;SDS011;10835;50.148;19.760;2022-11-23T04:07:11;18.27;;;7.32;;
21354;SDS011;10835;50.148;19.760;2022-11-23T04:09:45;16.30;;;7.72;;
21354;SDS011;10835;50.148;19.760;2022-11-23T04:12:32;16.08;;;7.00;;
21354;SDS011;10835;50.148;19.760;2022-11-23T04:14:59;13.98;;;7.82;;
21354;SDS011;10835;50.148;19.760;2022-11-23T04:17:29;20.60;;;8.82;;
21354;SDS011;10835;50.148;19.760;2022-11-23T04:19:57;17.98;;;7.78;;
21354;SDS011;10835;50.148;19.760;2022-11-23T04:22:25;19.33;;;7.65;;
21354;SDS011;10835;50.148;19.760;2022-11-23T04:24:53;19.80;;;7.40;;
21354;SDS011;10835;50.148;19.760;2022-11-23T04:27:21;18.15;;;8.32;;
21354;SDS011;10835;50.148;19.760;2022-11-23T04:29:49;15.20;;;7.20;;
21354;SDS011;10835;50.148;19.760;2022-11-23T04:32:18;21.83;;;8.73;;
21354;SDS011;10835;50.148;19.760;2022-11-23T04:34:48;18.08;;;7.85;;
21354;SDS011;10835;50.148;19.760;2022-11-23T04:37:57;18.65;;;8.10;;
21354;SDS011;10835;50.148;19.760;2022-11-23T04:40:27;17.52;;;8.32;;
21354;SDS011;10835;50.148;19.760;2022-11-23T04:43:01;17.05;;;8.13;;
21354;SDS011;10835;50.148;19.760;2022-11-23T04:45:32;17.30;;;7.45;;
21354;SDS011;10835;50.148;19.760;2022-11-23T04:48:06;16.58;;;7.97;;
21354;SDS011;10835;50.148;19.760;2022-11-23T04:50:37;20.23;;;7.50;;
21354;SDS011;10835;50.148;19.760;2022-11-23T04:53:09;15.88;;;6.55;;
21354;SDS011;10835;50.148;19.760;2022-11-23T04:55:43;17.17;;;7.13;;
21354;SDS011;10835;50.148;19.760;2022-11-23T04:58:14;16.83;;;7.60;;
21354;SDS011;10835;50.148;19.760;2022-11-23T05:00:45;31.35;;;8.30;;
21354;SDS011;10835;50.148;19.760;2022-11-23T05:03:14;18.50;;;7.45;;
21354;SDS011;10835;50.148;19.760;2022-11-23T05:05:43;19.75;;;7.30;;
21354;SDS011;10835;50.148;19.760;2022-11-23T05:08:12;17.02;;;7.65;;
21354;SDS011;10835;50.148;19.760;2022-11-23T05:11:01;15.68;;;7.30;;
21354;SDS011;10835;50.148;19.760;2022-11-23T05:13:29;20.65;;;7.93;;
21354;SDS011;10835;50.148;19.760;2022-11-23T05:15:57;20.10;;;8.32;;
21354;SDS011;10835;50.148;19.760;2022-11-23T05:18:27;18.95;;;7.63;;
21354;SDS011;10835;50.148;19.760;2022-11-23T05:20:57;18.73;;;6.70;;
21354;SDS011;10835;50.148;19.760;2022-11-23T05:23:25;23.42;;;7.78;;
21354;SDS011;10835;50.148;19.760;2022-11-23T05:25:54;16.20;;;7.60;;
21354;SDS011;10835;50.148;19.760;2022-11-23T05:28:22;20.33;;;8.80;;
21354;SDS011;10835;50.148;19.760;2022-11-23T05:31:10;16.02;;;7.78;;
21354;SDS011;10835;50.148;19.760;2022-11-23T05:33:40;18.35;;;8.25;;
21354;SDS011;10835;50.148;19.760;2022-11-23T05:36:10;15.82;;;7.82;;
21354;SDS011;10835;50.148;19.760;2022-11-23T05:38:40;19.10;;;7.40;;
21354;SDS011;10835;50.148;19.760;2022-11-23T05:41:18;18.55;;;7.97;;
21354;SDS011;10835;50.148;19.760;2022-11-23T05:43:49;19.55;;;8.13;;
21354;SDS011;10835;50.148;19.760;2022-11-23T05:46:22;20.40;;;8.70;;
21354;SDS011;10835;50.148;19.760;2022-11-23T05:48:50;18.48;;;7.10;;
21354;SDS011;10835;50.148;19.760;2022-11-23T05:51:19;15.00;;;7.07;;
21354;SDS011;10835;50.148;19.760;2022-11-23T05:53:48;19.80;;;7.28;;
21354;SDS011;10835;50.148;19.760;2022-11-23T05:56:24;19.75;;;7.63;;
21354;SDS011;10835;50.148;19.760;2022-11-23T05:59:03;20.77;;;7.55;;
21354;SDS011;10835;50.148;19.760;2022-11-23T06:01:34;23.77;;;8.35;;
21354;SDS011;10835;50.148;19.760;2022-11-23T06:04:03;20.42;;;8.32;;
21354;SDS011;10835;50.148;19.760;2022-11-23T06:06:42;19.45;;;9.38;;
21354;SDS011;10835;50.148;19.760;2022-11-23T06:09:10;21.42;;;8.88;;
21354;SDS011;10835;50.148;19.760;2022-11-23T06:11:42;18.92;;;8.13;;
21354;SDS011;10835;50.148;19.760;2022-11-23T06:14:15;17.20;;;8.23;;
21354;SDS011;10835;50.148;19.760;2022-11-23T06:16:45;19.85;;;7.55;;
21354;SDS011;10835;50.148;19.760;2022-11-23T06:19:32;21.25;;;7.82;;
21354;SDS011;10835;50.148;19.760;2022-11-23T06:22:04;22.35;;;8.40;;
21354;SDS011;10835;50.148;19.760;2022-11-23T06:24:39;16.80;;;7.60;;
21354;SDS011;10835;50.148;19.760;2022-11-23T06:27:25;19.88;;;6.35;;
21354;SDS011;10835;50.148;19.760;2022-11-23T06:29:53;18.73;;;7.60;;
21354;SDS011;10835;50.148;19.760;2022-11-23T06:32:24;15.90;;;7.18;;
21354;SDS011;10835;50.148;19.760;2022-11-23T06:34:53;13.77;;;5.88;;
21354;SDS011;10835;50.148;19.760;2022-11-23T06:37:29;14.10;;;5.53;;
21354;SDS011;10835;50.148;19.760;2022-11-23T06:39:57;16.35;;;6.93;;
21354;SDS011;10835;50.148;19.760;2022-11-23T06:42:25;16.98;;;6.68;;
21354;SDS011;10835;50.148;19.760;2022-11-23T06:45:10;13.95;;;6.00;;
21354;SDS011;10835;50.148;19.760;2022-11-23T06:47:38;16.33;;;6.90;;
21354;SDS011;10835;50.148;19.760;2022-11-23T06:50:07;16.50;;;5.72;;
21354;SDS011;10835;50.148;19.760;2022-11-23T06:52:37;12.07;;;5.78;;
21354;SDS011;10835;50.148;19.760;2022-11-23T06:55:06;11.45;;;5.63;;
21354;SDS011;10835;50.148;19.760;2022-11-23T06:57:34;10.73;;;5.55;;
21354;SDS011;10835;50.148;19.760;2022-11-23T07:00:03;13.52;;;4.80;;
21354;SDS011;10835;50.148;19.760;2022-11-23T07:02:35;14.68;;;4.82;;
21354;SDS011;10835;50.148;19.760;2022-11-23T07:05:04;11.88;;;4.32;;
21354;SDS011;10835;50.148;19.760;2022-11-23T07:07:34;11.35;;;5.30;;
21354;SDS011;10835;50.148;19.760;2022-11-23T07:10:12;11.07;;;4.88;;
21354;SDS011;10835;50.148;19.760;2022-11-23T07:12:44;8.50;;;4.40;;
21354;SDS011;10835;50.148;19.760;2022-11-23T07:15:15;11.63;;;4.50;;
21354;SDS011;10835;50.148;19.760;2022-11-23T07:17:44;9.45;;;4.18;;
21354;SDS011;10835;50.148;19.760;2022-11-23T07:20:12;14.27;;;4.93;;
21354;SDS011;10835;50.148;19.760;2022-11-23T07:22:42;8.98;;;4.35;;
21354;SDS011;10835;50.148;19.760;2022-11-23T07:25:10;8.35;;;4.22;;
21354;SDS011;10835;50.148;19.760;2022-11-23T07:27:43;8.32;;;4.20;;
21354;SDS011;10835;50.148;19.760;2022-11-23T07:30:11;13.82;;;5.15;;
21354;SDS011;10835;50.148;19.760;2022-11-23T07:32:42;10.20;;;4.38;;
21354;SDS011;10835;50.148;19.760;2022-11-23T07:35:10;12.18;;;4.50;;
21354;SDS011;10835;50.148;19.760;2022-11-23T07:37:42;10.88;;;5.30;;
21354;SDS011;10835;50.148;19.760;2022-11-23T07:40:12;13.27;;;4.60;;
21354;SDS011;10835;50.148;19.760;2022-11-23T07:42:42;11.13;;;4.85;;
21354;SDS011;10835;50.148;19.760;2022-11-23T07:45:12;12.40;;;4.53;;
21354;SDS011;10835;50.148;19.760;2022-11-23T07:47:43;12.90;;;4.97;;
21354;SDS011;10835;50.148;19.760;2022-11-23T07:50:12;9.80;;;4.22;;
21354;SDS011;10835;50.148;19.760;2022-11-23T07:52:40;9.02;;;3.90;;
21354;SDS011;10835;50.148;19.760;2022-11-23T07:55:08;8.88;;;4.05;;
21354;SDS011;10835;50.148;19.760;2022-11-23T07:57:37;10.30;;;4.53;;
21354;SDS011;10835;50.148;19.760;2022-11-23T08:00:06;7.70;;;3.95;;
21354;SDS011;10835;50.148;19.760;2022-11-23T08:02:38;8.60;;;3.78;;
21354;SDS011;10835;50.148;19.760;2022-11-23T08:05:29;7.85;;;4.18;;
21354;SDS011;10835;50.148;19.760;2022-11-23T08:07:58;11.15;;;5.03;;
21354;SDS011;10835;50.148;19.760;2022-11-23T08:10:30;14.10;;;4.38;;
21354;SDS011;10835;50.148;19.760;2022-11-23T08:13:00;11.88;;;4.15;;
21354;SDS011;10835;50.148;19.760;2022-11-23T08:15:31;9.10;;;5.00;;
21354;SDS011;10835;50.148;19.760;2022-11-23T08:18:00;11.38;;;4.72;;
21354;SDS011;10835;50.148;19.760;2022-11-23T08:20:29;10.35;;;4.63;;
21354;SDS011;10835;50.148;19.760;2022-11-23T08:22:58;10.88;;;4.43;;
21354;SDS011;10835;50.148;19.760;2022-11-23T08:25:28;11.18;;;4.32;;
21354;SDS011;10835;50.148;19.760;2022-11-23T08:27:57;12.57;;;4.68;;
21354;SDS011;10835;50.148;19.760;2022-11-23T08:30:28;12.77;;;6.00;;
21354;SDS011;10835;50.148;19.760;2022-11-23T08:32:58;14.95;;;5.95;;
21354;SDS011;10835;50.148;19.760;2022-11-23T08:35:29;12.45;;;5.20;;
21354;SDS011;10835;50.148;19.760;2022-11-23T08:37:59;11.48;;;5.07;;
21354;SDS011;10835;50.148;19.760;2022-11-23T08:40:27;13.48;;;5.65;;
21354;SDS011;10835;50.148;19.760;2022-11-23T08:42:55;12.77;;;5.07;;
21354;SDS011;10835;50.148;19.760;2022-11-23T08:45:24;10.52;;;5.38;;
21354;SDS011;10835;50.148;19.760;2022-11-23T08:47:52;10.05;;;5.00;;
21354;SDS011;10835;50.148;19.760;2022-11-23T08:50:21;11.77;;;4.43;;
21354;SDS011;10835;50.148;19.760;2022-11-23T08:52:53;15.43;;;6.07;;
21354;SDS011;10835;50.148;19.760;2022-11-23T08:55:22;11.95;;;5.68;;
21354;SDS011;10835;50.148;19.760;2022-11-23T08:57:53;11.68;;;5.53;;
21354;SDS011;10835;50.148;19.760;2022-11-23T09:00:21;12.07;;;6.32;;
21354;SDS011;10835;50.148;19.760;2022-11-23T09:02:51;9.20;;;5.07;;
21354;SDS011;10835;50.148;19.760;2022-11-23T09:05:19;16.10;;;5.88;;
21354;SDS011;10835;50.148;19.760;2022-11-23T09:07:47;13.35;;;5.80;;
21354;SDS011;10835;50.148;19.760;2022-11-23T09:10:15;13.32;;;5.32;;
21354;SDS011;10835;50.148;19.760;2022-11-23T09:12:44;15.18;;;5.80;;
21354;SDS011;10835;50.148;19.760;2022-11-23T09:15:13;12.63;;;6.35;;
21354;SDS011;10835;50.148;19.760;2022-11-23T09:17:41;12.43;;;6.18;;
21354;SDS011;10835;50.148;19.760;2022-11-23T09:20:10;22.85;;;7.13;;
21354;SDS011;10835;50.148;19.760;2022-11-23T09:22:38;13.38;;;6.50;;
21354;SDS011;10835;50.148;19.760;2022-11-23T09:25:06;11.45;;;6.28;;
21354;SDS011;10835;50.148;19.760;2022-11-23T09:27:35;17.90;;;7.28;;
21354;SDS011;10835;50.148;19.760;2022-11-23T09:30:04;17.63;;;5.85;;
21354;SDS011;10835;50.148;19.760;2022-11-23T09:32:32;13.50;;;6.00;;
21354;SDS011;10835;50.148;19.760;2022-11-23T09:35:00;13.23;;;5.90;;
21354;SDS011;10835;50.148;19.760;2022-11-23T09:37:29;14.60;;;5.82;;
21354;SDS011;10835;50.148;19.760;2022-11-23T09:39:57;16.13;;;6.60;;
21354;SDS011;10835;50.148;19.760;2022-11-23T09:42:32;17.15;;;6.95;;
21354;SDS011;10835;50.148;19.760;2022-11-23T09:45:15;17.58;;;6.75;;
21354;SDS011;10835;50.148;19.760;2022-11-23T09:47:56;16.35;;;5.75;;
21354;SDS011;10835;50.148;19.760;2022-11-23T09:50:41;16.48;;;5.57;;
21354;SDS011;10835;50.148;19.760;2022-11-23T09:53:16;14.93;;;5.82;;
21354;SDS011;10835;50.148;19.760;2022-11-23T09:55:48;11.60;;;5.43;;
21354;SDS011;10835;50.148;19.760;2022-11-23T09:58:19;11.35;;;4.82;;
21354;SDS011;10835;50.148;19.760;2022-11-23T10:00:50;16.67;;;5.65;;
21354;SDS011;10835;50.148;19.760;2022-11-23T10:03:22;13.23;;;5.80;;
21354;SDS011;10835;50.148;19.760;2022-11-23T10:05:54;18.02;;;7.07;;
21354;SDS011;10835;50.148;19.760;2022-11-23T10:08:32;18.33;;;7.00;;
21354;SDS011;10835;50.148;19.760;2022-11-23T10:11:18;17.77;;;6.80;;
21354;SDS011;10835;50.148;19.760;2022-11-23T10:14:00;12.43;;;6.32;;
21354;SDS011;10835;50.148;19.760;2022-11-23T10:16:35;17.45;;;6.25;;
21354;SDS011;10835;50.148;19.760;2022-11-23T10:19:10;17.08;;;6.40;;
21354;SDS011;10835;50.148;19.760;2022-11-23T10:21:48;13.05;;;6.13;;
21354;SDS011;10835;50.148;19.760;2022-11-23T10:24:23;15.10;;;6.75;;
21354;SDS011;10835;50.148;19.760;2022-11-23T10:26:56;17.70;;;7.13;;
21354;SDS011;10835;50.148;19.760;2022-11-23T10:29:26;15.10;;;6.45;;
21354;SDS011;10835;50.148;19.760;2022-11-23T10:31:56;17.02;;;7.45;;
21354;SDS011;10835;50.148;19.760;2022-11-23T10:34:33;18.67;;;6.50;;
21354;SDS011;10835;50.148;19.760;2022-11-23T10:37:12;12.02;;;6.03;;
21354;SDS011;10835;50.148;19.760;2022-11-23T10:39:43;12.50;;;5.95;;
21354;SDS011;10835;50.148;19.760;2022-11-23T10:42:13;17.75;;;8.15;;
21354;SDS011;10835;50.148;19.760;2022-11-23T10:44:47;15.32;;;6.80;;
21354;SDS011;10835;50.148;19.760;2022-11-23T10:47:32;12.82;;;6.10;;
21354;SDS011;10835;50.148;19.760;2022-11-23T10:50:09;14.57;;;5.60;;
21354;SDS011;10835;50.148;19.760;2022-11-23T10:52:51;10.90;;;6.18;;
21354;SDS011;10835;50.148;19.760;2022-11-23T10:55:23;13.43;;;6.45;;
21354;SDS011;10835;50.148;19.760;2022-11-23T10:57:53;12.73;;;6.00;;
21354;SDS011;10835;50.148;19.760;2022-11-23T11:00:22;13.45;;;6.95;;
21354;SDS011;10835;50.148;19.760;2022-11-23T11:02:56;15.25;;;5.90;;
21354;SDS011;10835;50.148;19.760;2022-11-23T11:05:26;12.27;;;6.10;;
21354;SDS011;10835;50.148;19.760;2022-11-23T11:08:17;16.55;;;6.00;;
21354;SDS011;10835;50.148;19.760;2022-11-23T11:10:48;12.32;;;5.78;;
21354;SDS011;10835;50.148;19.760;2022-11-23T11:13:24;14.90;;;5.47;;
21354;SDS011;10835;50.148;19.760;2022-11-23T11:15:54;13.75;;;5.68;;
21354;SDS011;10835;50.148;19.760;2022-11-23T11:18:25;14.85;;;6.45;;
21354;SDS011;10835;50.148;19.760;2022-11-23T11:20:56;10.88;;;5.47;;
21354;SDS011;10835;50.148;19.760;2022-11-23T11:23:26;15.15;;;6.82;;
21354;SDS011;10835;50.148;19.760;2022-11-23T11:26:04;18.65;;;6.47;;
21354;SDS011;10835;50.148;19.760;2022-11-23T11:28:42;17.90;;;7.47;;
21354;SDS011;10835;50.148;19.760;2022-11-23T11:34:11;18.35;;;7.32;;
21354;SDS011;10835;50.148;19.760;2022-11-23T11:36:47;16.75;;;6.80;;
21354;SDS011;10835;50.148;19.760;2022-11-23T11:39:23;22.67;;;7.22;;
21354;SDS011;10835;50.148;19.760;2022-11-23T11:41:57;16.13;;;7.13;;
21354;SDS011;10835;50.148;19.760;2022-11-23T11:44:29;18.42;;;5.82;;
21354;SDS011;10835;50.148;19.760;2022-11-23T11:47:01;16.65;;;6.15;;
21354;SDS011;10835;50.148;19.760;2022-11-23T11:49:48;17.10;;;7.22;;
21354;SDS011;10835;50.148;19.760;2022-11-23T11:52:19;11.18;;;5.05;;
21354;SDS011;10835;50.148;19.760;2022-11-23T11:54:52;14.88;;;6.47;;
21354;SDS011;10835;50.148;19.760;2022-11-23T11:57:30;14.98;;;5.93;;
21354;SDS011;10835;50.148;19.760;2022-11-23T12:00:04;17.58;;;6.80;;
21354;SDS011;10835;50.148;19.760;2022-11-23T12:02:38;19.88;;;6.95;;
21354;SDS011;10835;50.148;19.760;2022-11-23T12:05:16;10.75;;;4.22;;
21354;SDS011;10835;50.148;19.760;2022-11-23T12:07:52;14.85;;;6.53;;
21354;SDS011;10835;50.148;19.760;2022-11-23T12:10:27;17.25;;;6.13;;
21354;SDS011;10835;50.148;19.760;2022-11-23T12:13:01;16.45;;;6.55;;
21354;SDS011;10835;50.148;19.760;2022-11-23T12:15:32;17.83;;;6.20;;
21354;SDS011;10835;50.148;19.760;2022-11-23T12:18:23;15.50;;;6.10;;
21354;SDS011;10835;50.148;19.760;2022-11-23T12:21:01;14.80;;;7.13;;
21354;SDS011;10835;50.148;19.760;2022-11-23T12:23:37;18.88;;;7.60;;
21354;SDS011;10835;50.148;19.760;2022-11-23T12:26:18;16.85;;;7.00;;
21354;SDS011;10835;50.148;19.760;2022-11-23T12:28:59;22.08;;;8.07;;
21354;SDS011;10835;50.148;19.760;2022-11-23T12:31:39;18.25;;;6.53;;
21354;SDS011;10835;50.148;19.760;2022-11-23T12:34:16;15.13;;;6.97;;
21354;SDS011;10835;50.148;19.760;2022-11-23T12:37:02;13.85;;;6.00;;
21354;SDS011;10835;50.148;19.760;2022-11-23T12:39:56;19.30;;;6.95;;
21354;SDS011;10835;50.148;19.760;2022-11-23T12:42:47;18.67;;;8.25;;
21354;SDS011;10835;50.148;19.760;2022-11-23T12:45:24;13.27;;;6.38;;
21354;SDS011;10835;50.148;19.760;2022-11-23T12:51:19;16.77;;;7.38;;
21354;SDS011;10835;50.148;19.760;2022-11-23T12:53:56;13.70;;;6.28;;
21354;SDS011;10835;50.148;19.760;2022-11-23T12:56:46;16.30;;;7.10;;
21354;SDS011;10835;50.148;19.760;2022-11-23T12:59:22;16.48;;;7.30;;
21354;SDS011;10835;50.148;19.760;2022-11-23T13:01:54;15.77;;;7.65;;
21354;SDS011;10835;50.148;19.760;2022-11-23T13:04:39;18.60;;;7.57;;
21354;SDS011;10835;50.148;19.760;2022-11-23T13:10:19;19.98;;;7.75;;
21354;SDS011;10835;50.148;19.760;2022-11-23T13:13:15;19.25;;;8.13;;
21354;SDS011;10835;50.148;19.760;2022-11-23T13:16:20;17.17;;;6.75;;
21354;SDS011;10835;50.148;19.760;2022-11-23T13:19:08;18.20;;;7.90;;
21354;SDS011;10835;50.148;19.760;2022-11-23T13:21:54;14.55;;;6.05;;
21354;SDS011;10835;50.148;19.760;2022-11-23T13:24:28;19.50;;;7.18;;
21354;SDS011;10835;50.148;19.760;2022-11-23T13:29:57;20.88;;;7.30;;
21354;SDS011;10835;50.148;19.760;2022-11-23T13:32:40;13.40;;;7.05;;
21354;SDS011;10835;50.148;19.760;2022-11-23T13:38:21;21.45;;;6.97;;
21354;SDS011;10835;50.148;19.760;2022-11-23T13:40:51;17.02;;;6.90;;
21354;SDS011;10835;50.148;19.760;2022-11-23T13:43:20;20.90;;;7.88;;
21354;SDS011;10835;50.148;19.760;2022-11-23T13:46:08;19.33;;;7.90;;
21354;SDS011;10835;50.148;19.760;2022-11-23T13:48:49;16.75;;;7.32;;
21354;SDS011;10835;50.148;19.760;2022-11-23T13:51:24;16.83;;;6.82;;
21354;SDS011;10835;50.148;19.760;2022-11-23T13:53:56;21.00;;;7.00;;
21354;SDS011;10835;50.148;19.760;2022-11-23T13:56:29;14.43;;;7.18;;
21354;SDS011;10835;50.148;19.760;2022-11-23T14:02:01;15.93;;;7.38;;
21354;SDS011;10835;50.148;19.760;2022-11-23T14:04:52;21.38;;;6.75;;
21354;SDS011;10835;50.148;19.760;2022-11-23T14:07:57;18.10;;;7.38;;
21354;SDS011;10835;50.148;19.760;2022-11-23T14:10:29;20.83;;;7.18;;
21354;SDS011;10835;50.148;19.760;2022-11-23T14:12:59;21.52;;;8.15;;
21354;SDS011;10835;50.148;19.760;2022-11-23T14:15:31;18.15;;;7.18;;
21354;SDS011;10835;50.148;19.760;2022-11-23T14:20:54;15.88;;;6.35;;
21354;SDS011;10835;50.148;19.760;2022-11-23T14:23:51;18.73;;;7.63;;
21354;SDS011;10835;50.148;19.760;2022-11-23T14:26:44;19.73;;;9.60;;
21354;SDS011;10835;50.148;19.760;2022-11-23T14:29:25;21.75;;;7.97;;
21354;SDS011;10835;50.148;19.760;2022-11-23T14:32:03;23.70;;;8.80;;
21354;SDS011;10835;50.148;19.760;2022-11-23T14:34:46;16.50;;;7.50;;
21354;SDS011;10835;50.148;19.760;2022-11-23T14:37:24;19.13;;;7.63;;
21354;SDS011;10835;50.148;19.760;2022-11-23T14:40:04;19.65;;;7.22;;
21354;SDS011;10835;50.148;19.760;2022-11-23T14:42:41;20.48;;;8.90;;
21354;SDS011;10835;50.148;19.760;2022-11-23T14:45:12;14.93;;;6.95;;
21354;SDS011;10835;50.148;19.760;2022-11-23T14:47:40;15.88;;;7.93;;
21354;SDS011;10835;50.148;19.760;2022-11-23T14:50:22;18.85;;;7.38;;
21354;SDS011;10835;50.148;19.760;2022-11-23T14:52:54;24.88;;;9.18;;
21354;SDS011;10835;50.148;19.760;2022-11-23T14:55:25;21.30;;;8.23;;
21354;SDS011;10835;50.148;19.760;2022-11-23T14:57:58;17.27;;;7.97;;
21354;SDS011;10835;50.148;19.760;2022-11-23T15:00:30;18.70;;;7.38;;
21354;SDS011;10835;50.148;19.760;2022-11-23T15:03:04;22.15;;;8.77;;
21354;SDS011;10835;50.148;19.760;2022-11-23T15:05:57;17.95;;;6.88;;
21354;SDS011;10835;50.148;19.760;2022-11-23T15:08:33;16.48;;;7.32;;
21354;SDS011;10835;50.148;19.760;2022-11-23T15:11:10;21.58;;;8.32;;
21354;SDS011;10835;50.148;19.760;2022-11-23T15:13:43;18.83;;;7.63;;
21354;SDS011;10835;50.148;19.760;2022-11-23T15:16:13;18.92;;;7.20;;